Time;durP1;ratioP1;P1;durP2;ratioP2;P2;SDS_P1;SDS_P2;PMS_P1;PMS_P2;Temp;Humidity;BMP_temperature;BMP_pressure;BME280_temperature;BME280_humidity;BME280_pressure;Samples;Min_cycle;Max_cycle;Signal;HPM_P1;HPM_P2
2021/12/11 00:01:38;;;;;;;257.02;123.30;;;;;;;-3.19;91.17;96895.73;1747128;81;21431;-57
2021/12/11 00:04:01;;;;;;;231.68;112.65;;;;;;;-3.22;91.21;96895.66;1750996;81;21695;-56
2021/12/11 00:06:31;;;;;;;201.02;98.40;;;;;;;-3.20;91.08;96901.55;1752107;81;21460;-57
2021/12/11 00:09:02;;;;;;;210.55;107.17;;;;;;;-3.20;90.88;96902.06;1744176;81;21072;-57
2021/12/11 00:11:32;;;;;;;206.60;102.07;;;;;;;-3.23;91.09;96906.48;1764040;81;21001;-57
2021/12/11 00:14:02;;;;;;;197.60;93.67;;;;;;;-3.27;91.13;96907.42;1772845;80;36668;-56
2021/12/11 00:16:30;;;;;;;232.40;112.10;;;;;;;-3.24;91.06;96917.60;1737753;82;21165;-56
2021/12/11 00:19:02;;;;;;;247.65;119.70;;;;;;;-3.19;91.12;96924.36;1742333;82;21007;-56
2021/12/11 00:21:30;;;;;;;225.72;113.35;;;;;;;-3.14;91.14;96933.80;1751723;81;21039;-56
2021/12/11 00:24:07;;;;;;;260.17;126.60;;;;;;;-3.12;91.02;96936.23;1751747;80;21417;-56
2021/12/11 00:26:38;;;;;;;258.87;121.95;;;;;;;-3.12;90.96;96942.86;1746492;81;21000;-57
2021/12/11 00:29:05;;;;;;;228.52;108.65;;;;;;;-3.14;91.37;96957.66;1763696;79;22252;-57
2021/12/11 00:31:31;;;;;;;219.80;107.37;;;;;;;-3.15;91.05;96963.98;1763930;80;21441;-57
2021/12/11 00:33:57;;;;;;;241.78;110.83;;;;;;;-3.14;91.00;96963.47;1763863;80;21039;-56
2021/12/11 00:36:31;;;;;;;244.82;113.90;;;;;;;-3.18;90.90;96973.67;1764086;80;21028;-57
2021/12/11 00:38:54;;;;;;;237.23;115.03;;;;;;;-3.15;90.98;96980.41;1764849;80;21036;-57
2021/12/11 00:41:21;;;;;;;236.40;108.12;;;;;;;-3.07;91.37;96986.75;1723529;82;21441;-56
2021/12/11 00:43:49;;;;;;;248.62;115.08;;;;;;;-3.00;91.23;96990.64;1742111;81;21044;-57
2021/12/11 00:46:20;;;;;;;229.43;108.92;;;;;;;-2.94;91.28;96983.16;1776314;79;21629;-57
2021/12/11 00:48:46;;;;;;;214.80;100.75;;;;;;;-2.86;91.34;96986.33;1732765;82;21544;-57
2021/12/11 00:51:18;;;;;;;229.53;102.00;;;;;;;-2.78;91.33;96990.54;1709225;82;20952;-56
2021/12/11 00:53:51;;;;;;;207.25;98.65;;;;;;;-2.74;91.26;96991.70;1732650;82;22153;-58
2021/12/11 00:56:30;;;;;;;193.52;92.50;;;;;;;-2.73;91.08;96998.66;1763486;80;21033;-57
2021/12/11 00:58:59;;;;;;;178.65;76.33;;;;;;;-2.66;91.12;97002.54;1775147;80;20980;-57
2021/12/11 01:01:38;;;;;;;162.37;82.20;;;;;;;-2.69;90.87;96989.73;1760686;80;20984;-57
2021/12/11 01:04:12;;;;;;;193.75;91.25;;;;;;;-2.65;90.86;97009.46;1770748;80;21051;-56
2021/12/11 01:06:54;;;;;;;220.10;96.37;;;;;;;-2.68;91.04;97009.40;1728081;82;22055;-57
2021/12/11 01:09:28;;;;;;;238.60;107.90;;;;;;;-2.68;91.14;97002.77;1738121;82;21067;-57
2021/12/11 01:12:05;;;;;;;222.22;102.42;;;;;;;-2.67;91.03;97004.38;1757917;81;21544;-56
2021/12/11 01:14:38;;;;;;;203.10;94.80;;;;;;;;;;1733211;82;21053;-57
2021/12/11 01:17:13;;;;;;;213.22;99.97;;;;;;;-2.70;91.04;97010.66;1737525;82;21048;-57
2021/12/11 01:19:44;;;;;;;230.75;99.77;;;;;;;-2.77;90.90;97016.02;1739364;82;21708;-58
2021/12/11 01:22:23;;;;;;;211.03;98.20;;;;;;;-2.82;91.13;97013.20;1739701;82;21039;-58
2021/12/11 01:24:45;;;;;;;204.35;99.75;;;;;;;-2.83;91.33;97010.26;1737869;82;21005;-58
2021/12/11 01:27:16;;;;;;;201.65;92.55;;;;;;;-2.84;91.35;97008.13;1735761;82;21424;-58
2021/12/11 01:29:42;;;;;;;204.05;98.72;;;;;;;-2.77;91.25;97008.58;1763653;79;20977;-58
2021/12/11 01:32:09;;;;;;;194.67;96.20;;;;;;;-2.71;91.24;97019.13;1744275;81;21557;-58
2021/12/11 01:34:35;;;;;;;190.12;91.90;;;;;;;-2.67;91.12;97023.47;1755466;80;21082;-58
2021/12/11 01:37:02;;;;;;;187.62;94.15;;;;;;;-2.66;90.99;97036.50;1757865;80;20980;-58
2021/12/11 01:39:32;;;;;;;191.65;87.88;;;;;;;-2.67;91.33;97038.86;1737907;81;21000;-58
2021/12/11 01:41:59;;;;;;;210.80;93.80;;;;;;;-2.67;91.35;97044.17;1747863;81;21068;-58
2021/12/11 01:44:29;;;;;;;169.85;77.25;;;;;;;-2.73;92.04;97046.39;1739479;80;21145;-57
2021/12/11 01:47:15;;;;;;;190.55;85.67;;;;;;;-2.69;91.46;97051.54;1738248;82;20974;-57
2021/12/11 01:49:44;;;;;;;190.90;86.35;;;;;;;-2.72;92.00;97054.64;1762826;81;21410;-57
2021/12/11 01:52:19;;;;;;;194.80;91.25;;;;;;;-2.70;92.02;97055.23;1766069;81;21005;-57
2021/12/11 01:54:47;;;;;;;184.07;88.95;;;;;;;-2.68;92.00;97054.48;1763985;80;21489;-57
2021/12/11 01:57:20;;;;;;;186.07;83.65;;;;;;;-2.66;92.27;97060.38;1766544;80;22122;-56
2021/12/11 01:59:47;;;;;;;176.80;81.45;;;;;;;-2.64;91.64;97061.51;1747166;81;21013;-57
2021/12/11 02:02:19;;;;;;;199.72;83.97;;;;;;;-2.65;91.39;97063.34;1751562;81;20991;-57
2021/12/11 02:04:48;;;;;;;181.85;86.95;;;;;;;-2.66;91.23;97063.55;1763785;79;21119;-56
2021/12/11 02:07:16;;;;;;;;;;;;;;;-2.60;91.49;97076.75;1767145;80;21013;-57
2021/12/11 02:09:54;;;;;;;164.03;74.00;;;;;;;-2.59;91.04;97070.41;1779441;80;21451;-57
2021/12/11 02:12:26;;;;;;;197.72;95.87;;;;;;;-2.60;90.91;97079.40;1773628;80;21005;-57
2021/12/11 02:14:53;;;;;;;217.90;97.50;;;;;;;-2.62;91.00;97080.14;1744768;82;21611;-57
2021/12/11 02:17:28;;;;;;;231.05;100.62;;;;;;;-2.63;90.95;97089.13;1754438;80;21040;-57
2021/12/11 02:19:56;;;;;;;231.10;95.17;;;;;;;-2.58;91.17;97091.11;1767155;80;20992;-57
2021/12/11 02:22:31;;;;;;;180.87;84.40;;;;;;;-2.53;90.97;97099.76;1739912;82;21377;-56
2021/12/11 02:25:00;;;;;;;180.60;85.87;;;;;;;-2.54;90.89;97102.12;1763647;80;21453;-57
2021/12/11 02:27:33;;;;;;;173.87;84.85;;;;;;;-2.56;90.91;97109.78;1739774;82;21013;-57
2021/12/11 02:30:24;;;;;;;153.20;70.30;;;;;;;-2.55;91.04;97115.90;1763854;81;20984;-56
2021/12/11 02:33:06;;;;;;;159.03;70.05;;;;;;;-2.56;90.79;97116.41;1738124;80;20984;-56
2021/12/11 02:35:50;;;;;;;160.05;78.65;;;;;;;-2.59;90.82;97118.16;1778506;79;22098;-57
2021/12/11 02:38:30;;;;;;;162.68;77.25;;;;;;;-2.64;91.66;97119.86;1712322;82;21429;-57
2021/12/11 02:41:20;;;;;;;169.07;78.55;;;;;;;-2.64;91.51;97128.63;1718919;81;21471;-57
2021/12/11 02:43:57;;;;;;;160.48;75.50;;;;;;;-2.62;92.06;97133.19;1757567;81;21135;-57
2021/12/11 02:46:39;;;;;;;158.95;75.78;;;;;;;-2.59;91.89;97132.75;1747844;81;21001;-57
2021/12/11 02:49:22;;;;;;;167.80;75.15;;;;;;;-2.59;91.34;97139.89;1754510;81;21549;-57
2021/12/11 02:52:00;;;;;;;169.77;79.72;;;;;;;-2.60;91.51;97143.06;1757374;81;21478;-57
2021/12/11 02:54:36;;;;;;;174.25;81.28;;;;;;;-2.62;91.63;97141.15;1738503;80;21020;-56
2021/12/11 02:57:08;;;;;;;180.80;81.45;;;;;;;-2.59;92.01;97149.98;1739187;82;21008;-56
2021/12/11 02:59:40;;;;;;;177.40;85.38;;;;;;;-2.55;91.92;97147.73;1737270;80;21981;-57
2021/12/11 03:02:11;;;;;;;176.50;87.78;;;;;;;-2.54;91.79;97144.05;1736252;82;21491;-57
2021/12/11 03:04:44;;;;;;;195.43;92.08;;;;;;;-2.50;91.97;97156.34;1737010;82;20973;-57
2021/12/11 03:07:09;;;;;;;189.53;88.63;;;;;;;-2.49;92.02;97153.47;1736569;82;21412;-57
2021/12/11 03:09:38;;;;;;;195.00;85.65;;;;;;;-2.47;91.87;97160.72;1737090;82;21028;-57
2021/12/11 03:12:07;;;;;;;178.18;85.03;;;;;;;-2.45;91.59;97157.84;1753584;81;21011;-57
2021/12/11 03:14:33;;;;;;;167.50;82.80;;;;;;;-2.46;91.56;97161.02;1724869;80;21082;-57
2021/12/11 03:16:59;;;;;;;171.68;74.65;;;;;;;-2.45;91.54;97165.80;1756608;80;21617;-57
2021/12/11 03:19:31;;;;;;;186.45;83.78;;;;;;;-2.42;91.51;97165.36;1770257;80;21005;-56
2021/12/11 03:22:00;;;;;;;177.10;83.52;;;;;;;-2.43;91.42;97165.06;1763813;80;21413;-56
2021/12/11 03:24:26;;;;;;;170.35;83.50;;;;;;;-2.42;91.59;97162.70;1769139;80;21436;-57
2021/12/11 03:26:53;;;;;;;161.73;78.97;;;;;;;-2.41;92.11;97159.02;1778190;80;21004;-57
2021/12/11 03:29:19;;;;;;;148.28;76.05;;;;;;;-2.40;92.08;97164.63;1747686;80;21048;-57
2021/12/11 03:31:45;;;;;;;170.80;80.60;;;;;;;-2.41;91.73;97165.66;1744134;82;21051;-57
2021/12/11 03:34:16;;;;;;;164.18;76.07;;;;;;;-2.42;91.40;97170.16;1744197;82;20873;-57
2021/12/11 03:36:42;;;;;;;162.32;74.82;;;;;;;-2.45;91.52;97169.27;1764599;80;20996;-57
2021/12/11 03:39:18;;;;;;;155.05;72.15;;;;;;;-2.47;91.96;97176.64;1766849;80;21533;-58
2021/12/11 03:41:46;;;;;;;149.07;69.12;;;;;;;-2.47;92.06;97182.47;1750446;81;21002;-56
2021/12/11 03:44:13;;;;;;;174.90;77.82;;;;;;;-2.54;91.39;97173.74;1776623;79;20972;-56
2021/12/11 03:46:39;;;;;;;152.68;76.45;;;;;;;-2.60;91.56;97176.73;1757193;80;21028;-57
2021/12/11 03:49:12;;;;;;;157.57;76.30;;;;;;;-2.62;91.86;97181.45;1770050;80;21071;-57
2021/12/11 03:51:42;;;;;;;157.60;72.82;;;;;;;-2.65;92.15;97189.34;1748212;82;21769;-57
2021/12/11 03:54:10;;;;;;;160.07;72.85;;;;;;;-2.68;91.75;97195.56;1757180;80;21016;-56
2021/12/11 03:56:37;;;;;;;167.37;76.75;;;;;;;-2.69;91.58;97194.76;1749160;81;21052;-57
2021/12/11 03:59:09;;;;;;;162.18;81.25;;;;;;;-2.75;91.82;97196.94;1746275;81;20985;-57
2021/12/11 04:01:33;;;;;;;;;;;;;;;-2.74;91.59;97202.53;1740071;81;21488;-57
2021/12/11 04:04:11;;;;;;;163.35;74.47;;;;;;;-2.76;91.36;97209.09;1739587;82;21556;-57
2021/12/11 04:06:37;;;;;;;158.93;73.17;;;;;;;-2.75;91.30;97212.03;1758492;80;21004;-56
2021/12/11 04:09:06;;;;;;;232.35;96.47;;;;;;;-2.79;91.31;97210.34;1756484;81;21057;-57
2021/12/11 04:11:33;;;;;;;179.63;77.10;;;;;;;-2.74;91.45;97207.84;1764114;80;21060;-56
2021/12/11 04:14:06;;;;;;;157.25;76.53;;;;;;;-2.71;91.43;97198.66;1758774;80;21021;-56
2021/12/11 04:16:32;;;;;;;166.03;81.47;;;;;;;-2.70;91.56;97201.61;1721745;82;21555;-57
2021/12/11 04:18:59;;;;;;;173.50;84.42;;;;;;;-2.70;91.66;97210.89;1739275;82;21505;-57
2021/12/11 04:21:25;;;;;;;152.72;71.82;;;;;;;-2.69;91.96;97209.86;1737180;81;21008;-57
2021/12/11 04:23:51;;;;;;;167.53;80.80;;;;;;;-2.68;91.64;97209.64;1763953;81;21463;-57
2021/12/11 04:26:17;;;;;;;170.12;80.42;;;;;;;-2.71;91.68;97222.53;1770718;80;21000;-57
2021/12/11 04:28:46;;;;;;;169.85;76.17;;;;;;;-2.67;91.66;97213.91;1754951;80;21136;-57
2021/12/11 04:31:17;;;;;;;194.45;91.30;;;;;;;-2.65;91.52;97207.91;1744370;80;21012;-57
2021/12/11 04:33:46;;;;;;;167.68;80.47;;;;;;;-2.61;91.65;97221.02;1745470;80;20992;-57
2021/12/11 04:36:17;;;;;;;160.88;77.97;;;;;;;-2.55;91.71;97215.38;1763870;81;21453;-58
2021/12/11 04:38:43;;;;;;;177.00;82.80;;;;;;;-2.52;91.48;97216.27;1739173;82;21041;-58
2021/12/11 04:41:13;;;;;;;137.25;70.28;;;;;;;-2.54;91.71;97226.28;1764891;81;21582;-58
2021/12/11 04:43:41;;;;;;;150.05;70.62;;;;;;;-2.52;91.58;97226.87;1744425;81;20977;-57
2021/12/11 04:46:08;;;;;;;153.27;73.85;;;;;;;-2.53;91.50;97221.27;1722573;81;21444;-57
2021/12/11 04:48:57;;;;;;;123.60;60.23;;;;;;;-2.56;91.40;97225.18;1742141;81;21413;-57
2021/12/11 04:51:26;;;;;;;142.07;66.55;;;;;;;-2.54;91.36;97236.09;1762520;81;20997;-57
2021/12/11 04:53:58;;;;;;;131.52;63.02;;;;;;;-2.56;91.32;97242.42;1761958;81;21547;-57
2021/12/11 04:56:42;;;;;;;158.40;71.45;;;;;;;-2.53;91.28;97253.11;1760676;79;20985;-57
2021/12/11 04:59:12;;;;;;;162.05;71.62;;;;;;;-2.62;91.16;97256.53;1743744;81;21028;-56
2021/12/11 05:01:44;;;;;;;193.32;85.45;;;;;;;-2.68;90.84;97261.88;1740199;82;21029;-57
2021/12/11 05:04:28;;;;;;;156.15;80.67;;;;;;;-2.73;90.93;97265.70;1747142;81;21421;-57
2021/12/11 05:07:00;;;;;;;164.67;84.30;;;;;;;-2.83;90.94;97272.77;1716692;82;21437;-56
2021/12/11 05:09:25;;;;;;;196.65;89.47;;;;;;;-2.90;91.19;97274.67;1770168;80;20973;-56
2021/12/11 05:11:54;;;;;;;197.68;97.35;;;;;;;-2.99;91.59;97269.28;1748422;81;22038;-56
2021/12/11 05:14:18;;;;;;;250.13;99.05;;;;;;;-3.01;91.48;97277.45;1733931;81;20995;-56
2021/12/11 05:16:44;;;;;;;217.72;88.62;;;;;;;-3.03;91.65;97282.16;1755659;80;21048;-56
2021/12/11 05:19:10;;;;;;;206.30;91.97;;;;;;;-3.06;91.20;97278.61;1787837;80;21961;-58
2021/12/11 05:21:36;;;;;;;205.60;90.97;;;;;;;-3.09;91.01;97286.97;1769811;80;20999;-56
2021/12/11 05:24:04;;;;;;;188.97;85.72;;;;;;;-3.11;90.96;97291.67;1759011;80;21007;-57
2021/12/11 05:26:29;;;;;;;201.90;87.72;;;;;;;-3.15;90.85;97286.51;1757716;81;21385;-56
2021/12/11 05:28:55;;;;;;;209.62;94.58;;;;;;;-3.20;90.82;97292.42;1767292;80;20854;-56
2021/12/11 05:31:21;;;;;;;209.03;97.05;;;;;;;-3.25;90.92;97293.55;1764101;81;22127;-57
2021/12/11 05:33:47;;;;;;;182.80;84.05;;;;;;;-3.23;91.22;97296.02;1763772;80;21045;-56
2021/12/11 05:36:15;;;;;;;180.52;85.87;;;;;;;-3.21;91.99;97295.29;1770832;80;20917;-57
2021/12/11 05:38:41;;;;;;;179.60;83.30;;;;;;;-3.20;91.81;97296.40;1755716;80;21508;-57
2021/12/11 05:41:10;;;;;;;168.90;78.22;;;;;;;-3.23;91.57;97291.53;1756810;80;21012;-57
2021/12/11 05:43:37;;;;;;;172.80;80.12;;;;;;;-3.27;91.29;97295.61;1729721;82;21610;-56
2021/12/11 05:46:04;;;;;;;163.00;73.60;;;;;;;-3.28;91.16;97292.66;1721430;82;21025;-57
2021/12/11 05:48:30;;;;;;;191.60;85.22;;;;;;;-3.27;91.04;97296.92;1748622;80;21013;-57
2021/12/11 05:51:00;;;;;;;164.90;77.70;;;;;;;-3.28;90.95;97304.58;1741917;82;20957;-57
2021/12/11 05:53:26;;;;;;;210.20;89.58;;;;;;;-3.29;90.78;97309.58;1743924;82;20989;-56
2021/12/11 05:55:54;;;;;;;186.95;87.17;;;;;;;-3.37;90.81;97311.13;1743992;81;22231;-57
2021/12/11 06:00:54;;;;;;;171.25;86.02;;;;;;;-3.51;90.81;97306.37;1725218;80;20981;-57
2021/12/11 06:03:20;;;;;;;184.25;84.77;;;;;;;-3.56;91.18;97316.79;1761269;80;20845;-57
2021/12/11 06:05:46;;;;;;;159.55;74.58;;;;;;;-3.59;91.06;97322.99;1744206;80;20881;-57
2021/12/11 06:08:12;;;;;;;208.28;115.37;;;;;;;-3.62;90.87;97324.73;1745445;80;21452;-56
2021/12/11 06:10:39;;;;;;;169.13;80.20;;;;;;;-3.70;90.79;97329.73;1763582;80;20890;-57
2021/12/11 06:13:06;;;;;;;252.32;116.12;;;;;;;-3.78;91.04;97340.03;1739541;82;20978;-57
2021/12/11 06:15:32;;;;;;;226.58;104.53;;;;;;;-3.88;91.31;97354.20;1750621;80;21008;-57
2021/12/11 06:17:58;;;;;;;211.43;100.12;;;;;;;-3.90;90.90;97354.91;1751715;81;21030;-57
2021/12/11 06:20:27;;;;;;;241.35;117.85;;;;;;;-3.93;90.75;97359.30;1752177;81;21480;-57
2021/12/11 06:22:53;;;;;;;229.65;113.75;;;;;;;-3.93;90.79;97360.62;1751691;81;20969;-57
2021/12/11 06:25:24;;;;;;;165.70;85.32;;;;;;;-3.94;90.97;97366.91;1735726;82;21012;-56
2021/12/11 06:27:50;;;;;;;163.00;80.42;;;;;;;-3.95;90.99;97359.99;1766326;80;21000;-56
2021/12/11 06:30:17;;;;;;;173.30;83.03;;;;;;;-4.02;90.74;97369.25;1774235;79;20954;-57
2021/12/11 06:32:43;;;;;;;181.90;86.25;;;;;;;-4.04;90.63;97366.00;1736365;81;21453;-56
2021/12/11 06:35:15;;;;;;;179.27;89.87;;;;;;;-4.09;90.68;97363.16;1729990;81;21048;-57
2021/12/11 06:37:41;;;;;;;162.37;75.03;;;;;;;-4.11;90.97;97375.76;1725133;81;21504;-57
2021/12/11 06:40:08;;;;;;;170.62;70.25;;;;;;;-4.12;90.72;97381.26;1744461;81;20845;-56
2021/12/11 06:42:34;;;;;;;164.30;72.50;;;;;;;-4.21;90.52;97398.34;1736118;82;21075;-56
2021/12/11 06:45:00;;;;;;;162.92;75.67;;;;;;;-4.28;90.51;97407.58;1738954;81;21104;-57
2021/12/11 06:47:26;;;;;;;139.37;72.67;;;;;;;-4.36;90.69;97413.91;1737786;82;20953;-56
2021/12/11 06:49:52;;;;;;;153.72;75.85;;;;;;;-4.33;90.86;97414.00;1737610;82;20909;-56
2021/12/11 06:52:20;;;;;;;183.50;89.97;;;;;;;-4.34;90.97;97418.48;1775382;80;20905;-57
2021/12/11 06:54:46;;;;;;;296.68;140.90;;;;;;;-4.43;90.53;97419.67;1745788;81;21428;-57
2021/12/11 06:57:12;;;;;;;314.30;141.62;;;;;;;-4.44;90.31;97422.50;1725416;81;21038;-56
2021/12/11 06:59:38;;;;;;;233.90;118.37;;;;;;;-4.45;90.46;97423.00;1719940;80;21000;-57
2021/12/11 07:02:04;;;;;;;169.15;82.17;;;;;;;-4.48;90.32;97422.09;1722163;81;21071;-57
2021/12/11 07:04:30;;;;;;;167.80;77.05;;;;;;;-4.48;90.27;97420.77;1734480;82;21036;-58
2021/12/11 07:06:56;;;;;;;163.35;73.60;;;;;;;-4.47;90.27;97423.72;1735450;82;20869;-57
2021/12/11 07:09:24;;;;;;;153.50;68.42;;;;;;;-4.43;90.31;97423.64;1735557;82;21066;-57
2021/12/11 07:11:52;;;;;;;171.43;71.75;;;;;;;-4.42;90.27;97420.48;1762603;81;21028;-57
2021/12/11 07:14:19;;;;;;;185.50;88.22;;;;;;;-4.42;90.19;97435.04;1749968;80;21368;-56
2021/12/11 07:16:45;;;;;;;176.55;89.67;;;;;;;-4.43;90.18;97427.61;1743464;80;21454;-56
2021/12/11 07:19:11;;;;;;;146.72;75.70;;;;;;;-4.43;90.27;97432.09;1741101;82;20976;-56
2021/12/11 07:21:38;;;;;;;171.30;87.57;;;;;;;-4.40;90.23;97435.14;1719534;82;21570;-56
2021/12/11 07:24:06;;;;;;;181.70;94.58;;;;;;;-4.39;90.11;97436.77;1737779;82;21111;-57
2021/12/11 07:26:33;;;;;;;174.40;87.37;;;;;;;-4.31;90.28;97444.52;1727684;82;21697;-57
2021/12/11 07:29:06;;;;;;;167.05;84.10;;;;;;;-4.33;90.15;97445.75;1739226;81;21345;-56
2021/12/11 07:31:33;;;;;;;178.87;87.37;;;;;;;-4.30;90.09;97450.63;1728536;81;21079;-56
2021/12/11 07:33:59;;;;;;;207.90;105.43;;;;;;;-4.31;90.02;97456.42;1737293;81;22431;-57
2021/12/11 07:36:26;;;;;;;189.57;97.55;;;;;;;-4.26;90.27;97457.17;1736175;82;21064;-56
2021/12/11 07:38:52;;;;;;;196.68;94.10;;;;;;;-4.20;90.00;97467.44;1756569;80;21075;-56
2021/12/11 07:41:18;;;;;;;195.32;102.67;;;;;;;-4.22;89.53;97474.27;1728407;82;20908;-56
2021/12/11 07:43:45;;;;;;;166.77;90.30;;;;;;;-4.18;89.68;97486.09;1719433;82;21018;-57
2021/12/11 07:46:16;;;;;;;175.90;95.03;;;;;;;-4.14;89.48;97495.77;1724441;82;21507;-57
2021/12/11 07:48:43;;;;;;;154.35;81.47;;;;;;;-4.07;89.71;97498.73;1763543;80;21056;-56
2021/12/11 07:51:09;;;;;;;218.05;124.22;;;;;;;-4.04;89.37;97503.63;1742699;80;20997;-56
2021/12/11 07:53:35;;;;;;;190.97;109.97;;;;;;;-4.02;89.08;97508.71;1744141;80;21626;-57
2021/12/11 07:56:01;;;;;;;180.42;106.25;;;;;;;-4.06;88.83;97513.59;1728447;82;20906;-57
2021/12/11 07:58:29;;;;;;;194.00;105.12;;;;;;;-3.98;89.19;97521.36;1736963;82;21652;-56
2021/12/11 08:00:55;;;;;;;211.95;112.35;;;;;;;-3.94;89.16;97522.27;1727593;82;20954;-56
2021/12/11 08:03:21;;;;;;;216.50;107.45;;;;;;;-3.88;89.28;97526.27;1724903;81;21521;-57
2021/12/11 08:05:49;;;;;;;166.92;79.75;;;;;;;-3.81;89.38;97532.41;1737476;82;20858;-56
2021/12/11 08:08:15;;;;;;;168.97;86.97;;;;;;;-3.75;89.47;97538.74;1688372;82;21083;-57
2021/12/11 08:10:44;;;;;;;194.62;100.18;;;;;;;-3.71;89.51;97533.34;1773799;80;21878;-57
2021/12/11 08:13:10;;;;;;;183.30;94.72;;;;;;;-3.64;89.68;97538.66;1727814;82;25290;-57
2021/12/11 08:15:37;;;;;;;301.98;149.05;;;;;;;-3.57;89.79;97546.11;1750524;80;21452;-57
2021/12/11 08:18:04;;;;;;;245.65;122.07;;;;;;;-3.50;89.55;97548.27;1746626;80;21031;-57
2021/12/11 08:20:31;;;;;;;222.63;108.25;;;;;;;-3.42;89.66;97552.86;1734541;81;21048;-56
2021/12/11 08:22:57;;;;;;;242.77;125.15;;;;;;;-3.37;89.43;97552.23;1758500;79;21973;-57
2021/12/11 08:25:25;;;;;;;230.75;118.42;;;;;;;-3.27;89.67;97557.13;1742899;79;21019;-57
2021/12/11 08:27:52;;;;;;;239.50;130.30;;;;;;;-3.17;89.78;97560.19;1750659;79;21122;-57
2021/12/11 08:30:17;;;;;;;243.45;119.72;;;;;;;-3.16;89.17;97567.16;1738340;80;21002;-57
2021/12/11 08:32:44;;;;;;;259.27;129.57;;;;;;;-3.10;89.34;97570.29;1724557;81;21036;-56
2021/12/11 08:35:11;;;;;;;292.95;155.25;;;;;;;-3.08;89.29;97568.75;1754669;81;21128;-57
2021/12/11 08:37:38;;;;;;;262.82;128.42;;;;;;;-3.05;89.28;97577.13;1772734;79;21017;-57
2021/12/11 08:40:07;;;;;;;230.50;113.65;;;;;;;-3.00;89.25;97589.25;1745947;81;21179;-58
2021/12/11 08:42:33;;;;;;;225.68;111.68;;;;;;;-3.00;89.31;97592.41;1733434;80;20969;-57
2021/12/11 08:45:05;;;;;;;241.78;121.75;;;;;;;-2.93;89.50;97594.56;1734263;79;21424;-57
2021/12/11 08:47:27;;;;;;;239.70;136.33;;;;;;;-2.84;89.59;97606.59;1738489;79;21127;-57
2021/12/11 08:49:55;;;;;;;210.68;108.60;;;;;;;-2.74;89.60;97597.70;1742709;79;20890;-57
2021/12/11 08:52:32;;;;;;;219.50;110.88;;;;;;;-2.64;89.61;97610.58;1703150;81;21000;-56
2021/12/11 08:54:59;;;;;;;200.10;96.60;;;;;;;-2.54;89.58;97615.47;1734259;81;21001;-57
2021/12/11 08:57:29;;;;;;;207.22;102.60;;;;;;;-2.48;89.46;97615.95;1726959;80;21051;-57
2021/12/11 08:59:59;;;;;;;200.85;105.60;;;;;;;-2.40;89.43;97624.50;1731443;81;21124;-57
2021/12/11 09:02:30;;;;;;;187.07;95.57;;;;;;;-2.32;89.38;97624.80;1711443;82;21018;-57
2021/12/11 09:05:01;;;;;;;184.65;97.75;;;;;;;-2.20;89.39;97632.97;1744841;81;21036;-57
2021/12/11 09:07:46;;;;;;;198.65;113.92;;;;;;;-2.07;89.44;97641.70;1727506;80;21879;-57
2021/12/11 09:10:24;;;;;;;254.60;134.35;;;;;;;-1.90;89.28;97646.55;1761652;80;21047;-56
2021/12/11 09:12:58;;;;;;;259.80;129.42;;;;;;;-1.64;89.37;97643.80;1767434;80;21560;-56
2021/12/11 09:15:36;;;;;;;189.77;94.15;;;;;;;-1.37;89.59;97641.83;1751324;80;21038;-56
2021/12/11 09:18:09;;;;;;;189.20;98.70;;;;;;;-1.17;89.31;97639.89;1739606;81;21197;-57
2021/12/11 09:20:40;;;;;;;175.97;90.70;;;;;;;-0.98;88.52;97647.95;1733203;82;21492;-57
2021/12/11 09:23:23;;;;;;;210.55;116.80;;;;;;;-0.87;87.27;97646.73;1763258;80;21191;-57
2021/12/11 09:26:02;;;;;;;191.30;98.30;;;;;;;-0.74;87.57;97656.48;1724827;82;21923;-57
2021/12/11 09:28:42;;;;;;;163.60;84.25;;;;;;;-0.62;87.25;97649.93;1763582;79;20952;-57
2021/12/11 09:31:22;;;;;;;178.80;95.40;;;;;;;-0.47;87.18;97649.09;1738860;81;21516;-56
2021/12/11 09:34:02;;;;;;;194.02;96.00;;;;;;;-0.46;85.92;97652.05;1753599;79;21143;-57
2021/12/11 09:36:33;;;;;;;179.03;86.85;;;;;;;-0.37;86.10;97653.40;1764751;79;21058;-57
2021/12/11 09:39:07;;;;;;;200.43;96.95;;;;;;;-0.24;86.27;97656.98;1761982;79;21126;-57
2021/12/11 09:41:33;;;;;;;247.65;114.42;;;;;;;-0.13;86.46;97657.07;1721474;82;21064;-57
2021/12/11 09:44:10;;;;;;;237.20;119.05;;;;;;;-0.02;86.78;97664.33;1753275;80;21005;-57
2021/12/11 09:46:43;;;;;;;169.28;87.88;;;;;;;0.15;87.36;97669.89;1758520;79;20957;-57
2021/12/11 09:49:11;;;;;;;173.05;86.05;;;;;;;0.23;87.27;97673.59;1756167;81;21032;-57
2021/12/11 09:51:41;;;;;;;170.55;81.05;;;;;;;0.38;87.68;97669.23;1762375;80;21072;-57
2021/12/11 09:54:14;;;;;;;180.10;82.30;;;;;;;0.41;86.24;97663.97;1758594;80;21018;-57
2021/12/11 09:56:48;;;;;;;161.32;76.75;;;;;;;0.51;86.91;97672.25;1745219;80;20985;-57
2021/12/11 09:59:16;;;;;;;150.95;74.00;;;;;;;0.60;86.38;97673.59;1768850;80;21179;-57
2021/12/11 10:01:44;;;;;;;144.50;72.85;;;;;;;0.71;86.82;97674.17;1752715;80;20965;-57
2021/12/11 10:04:28;;;;;;;125.47;62.20;;;;;;;0.82;86.95;97677.39;1757929;80;22545;-57
2021/12/11 10:07:23;;;;;;;127.65;60.85;;;;;;;0.86;86.80;97681.78;1764123;80;21069;-58
2021/12/11 10:09:23;;;;;;;155.00;79.72;;;;;;;0.75;86.48;97687.33;1751470;80;21099;-57
2021/12/11 10:12:06;;;;;;;194.17;81.37;;;;;;;0.71;86.49;97686.17;1757888;81;21092;-56
2021/12/11 10:14:42;;;;;;;182.30;77.53;;;;;;;0.69;86.53;97682.11;1755314;79;20958;-57
2021/12/11 10:17:14;;;;;;;162.25;76.37;;;;;;;0.72;86.66;97686.98;1737689;82;21952;-57
2021/12/11 10:19:40;;;;;;;157.40;83.72;;;;;;;0.77;86.33;97684.44;1755811;79;21065;-56
2021/12/11 10:22:25;;;;;;;131.47;68.90;;;;;;;0.86;86.70;97692.97;1762626;80;21048;-57
2021/12/11 10:24:52;;;;;;;144.30;73.78;;;;;;;0.92;86.61;97693.38;1751152;80;21028;-57
2021/12/11 10:27:23;;;;;;;133.30;74.00;;;;;;;0.99;86.40;97694.92;1772577;80;20975;-57
2021/12/11 10:29:50;;;;;;;124.47;63.63;;;;;;;1.05;86.41;97698.55;1768472;80;21139;-57
2021/12/11 10:32:19;;;;;;;343.55;127.22;;;;;;;1.04;85.99;97698.27;1740836;81;21453;-57
2021/12/11 10:34:49;;;;;;;248.65;112.68;;;;;;;1.07;86.28;97695.12;1746435;80;20993;-57
2021/12/11 10:37:27;;;;;;;175.22;81.60;;;;;;;1.12;85.71;97693.94;1761479;80;21064;-57
2021/12/11 10:39:54;;;;;;;180.95;100.42;;;;;;;1.19;86.22;97689.82;1753210;80;21043;-57
2021/12/11 10:42:20;;;;;;;185.73;99.35;;;;;;;1.23;85.79;97698.49;1763922;81;22266;-57
2021/12/11 10:44:49;;;;;;;193.43;101.02;;;;;;;1.13;82.99;97698.23;1739792;82;21018;-57
2021/12/11 10:47:20;;;;;;;194.22;105.63;;;;;;;1.12;83.43;97699.28;1759082;80;21445;-57
2021/12/11 10:49:46;;;;;;;202.32;100.67;;;;;;;1.17;84.85;97701.25;1757926;80;21056;-57
2021/12/11 10:52:17;;;;;;;192.40;96.72;;;;;;;1.08;83.58;97704.23;1745524;81;20984;-57
2021/12/11 10:54:43;;;;;;;190.90;96.37;;;;;;;1.12;84.72;97709.95;1747486;81;22245;-57
2021/12/11 10:57:09;;;;;;;215.50;104.23;;;;;;;1.07;85.12;97715.95;1740130;81;20994;-57
2021/12/11 10:59:39;;;;;;;218.60;102.85;;;;;;;1.07;85.38;97718.62;1739763;80;21317;-57
2021/12/11 11:02:15;;;;;;;226.15;106.05;;;;;;;1.06;84.72;97724.20;1754667;80;20993;-57
2021/12/11 11:04:46;;;;;;;193.25;98.00;;;;;;;1.09;85.12;97717.06;1739518;82;20992;-57
2021/12/11 11:07:12;;;;;;;177.50;91.80;;;;;;;1.15;85.11;97712.16;1739793;82;21552;-58
2021/12/11 11:09:38;;;;;;;176.25;87.57;;;;;;;1.21;85.32;97707.78;1760419;79;20831;-57
2021/12/11 11:12:08;;;;;;;133.82;67.90;;;;;;;1.25;85.33;97700.41;1740956;81;21031;-57
2021/12/11 11:14:34;;;;;;;157.80;85.40;;;;;;;1.34;85.18;97706.23;1745072;80;20995;-57
2021/12/11 11:17:06;;;;;;;189.80;99.47;;;;;;;1.32;85.27;97707.80;1754398;80;20937;-57
2021/12/11 11:19:34;;;;;;;181.65;94.70;;;;;;;1.35;85.15;97714.02;1739914;82;21454;-57
2021/12/11 11:22:04;;;;;;;198.97;95.53;;;;;;;1.38;85.12;97721.59;1739283;82;21018;-57
2021/12/11 11:24:35;;;;;;;232.77;118.67;;;;;;;1.46;85.30;97726.31;1762998;79;21010;-57